Time;durP1;ratioP1;P1;durP2;ratioP2;P2;SDS_P1;SDS_P2;PMS_P1;PMS_P2;Temp;Humidity;BMP_temperature;BMP_pressure;BME280_temperature;BME280_humidity;BME280_pressure;Samples;Min_cycle;Max_cycle;Signal;HPM_P1;HPM_P2
2021/10/01 00:00:10;;;;;;;3.47;2.07;;;11.10;99.90;;;;;;5077357;28;20465;-70
2021/10/01 00:02:37;;;;;;;2.37;2.10;;;11.10;99.90;;;;;;5076951;28;20448;-72
2021/10/01 00:05:04;;;;;;;3.10;2.27;;;11.10;99.90;;;;;;5076800;28;20462;-69
2021/10/01 00:07:31;;;;;;;3.77;1.77;;;11.20;99.90;;;;;;5076856;28;20470;-69
2021/10/01 00:09:59;;;;;;;6.83;2.17;;;11.30;99.90;;;;;;5077312;28;20463;-70
2021/10/01 00:12:26;;;;;;;3.00;2.20;;;11.30;99.90;;;;;;5076877;28;20559;-70
2021/10/01 00:14:53;;;;;;;4.27;2.17;;;11.30;99.90;;;;;;5076518;28;20467;-71
2021/10/01 00:17:20;;;;;;;8.37;2.50;;;11.30;99.90;;;;;;5077428;28;20459;-71
2021/10/01 00:19:47;;;;;;;4.67;2.20;;;11.30;99.90;;;;;;5076999;28;20843;-70
2021/10/01 00:22:14;;;;;;;2.43;2.03;;;11.30;99.90;;;;;;5076692;28;20461;-70
2021/10/01 00:24:41;;;;;;;4.93;2.17;;;11.30;99.90;;;;;;5076696;28;20456;-71
2021/10/01 00:27:09;;;;;;;4.50;2.20;;;11.30;99.90;;;;;;5076854;28;20778;-71
2021/10/01 00:29:37;;;;;;;3.70;2.40;;;11.30;99.90;;;;;;5076278;28;20956;-70
2021/10/01 00:32:04;;;;;;;3.60;2.30;;;11.30;99.90;;;;;;5076363;28;20477;-69
2021/10/01 00:34:30;;;;;;;5.37;2.47;;;11.30;99.90;;;;;;5076177;28;20469;-70
2021/10/01 00:36:57;;;;;;;6.10;2.20;;;11.30;99.90;;;;;;5076517;28;20779;-71
2021/10/01 00:39:24;;;;;;;3.87;2.60;;;11.30;99.90;;;;;;5076425;28;20560;-70
2021/10/01 00:41:51;;;;;;;3.40;2.37;;;11.30;99.90;;;;;;5076760;28;20464;-70
2021/10/01 00:44:19;;;;;;;5.60;2.27;;;11.30;99.90;;;;;;5076232;28;20768;-70
2021/10/01 00:46:45;;;;;;;2.43;2.00;;;11.20;99.90;;;;;;5076305;28;20452;-70
2021/10/01 00:49:12;;;;;;;3.10;2.20;;;11.20;99.90;;;;;;5076656;28;20464;-69
2021/10/01 00:51:40;;;;;;;2.63;2.20;;;11.20;99.90;;;;;;5076467;28;20470;-71
2021/10/01 00:54:07;;;;;;;3.03;2.10;;;11.20;99.90;;;;;;5076317;28;20810;-69
2021/10/01 00:56:34;;;;;;;2.37;1.70;;;11.10;99.90;;;;;;5076633;28;20780;-69
2021/10/01 00:59:02;;;;;;;4.73;2.20;;;11.10;99.90;;;;;;5076610;28;20454;-71
2021/10/01 01:01:30;;;;;;;2.80;1.87;;;11.00;99.90;;;;;;5076328;28;20487;-70
2021/10/01 01:04:01;;;;;;;4.40;1.97;;;11.00;99.90;;;;;;5080020;28;20453;-70
2021/10/01 01:06:34;;;;;;;14.03;2.03;;;10.90;99.90;;;;;;5079273;28;20465;-71
2021/10/01 01:09:09;;;;;;;2.67;1.90;;;10.90;99.90;;;;;;5080744;28;20452;-70
2021/10/01 01:11:47;;;;;;;2.23;2.03;;;10.90;99.90;;;;;;5080705;28;20443;-69
2021/10/01 01:14:17;;;;;;;4.60;1.80;;;10.90;99.90;;;;;;5079036;28;20486;-70
2021/10/01 01:16:46;;;;;;;4.53;2.03;;;10.90;99.90;;;;;;5080037;28;20435;-70
2021/10/01 01:19:27;;;;;;;3.33;2.03;;;10.90;99.90;;;;;;5079253;28;20482;-69
2021/10/01 01:22:04;;;;;;;5.10;2.13;;;10.90;99.90;;;;;;5076730;28;20440;-70
2021/10/01 01:24:55;;;;;;;1.80;1.67;;;10.90;99.90;;;;;;5075302;28;20444;-70
2021/10/01 01:27:34;;;;;;;4.00;2.40;;;10.80;99.90;;;;;;5075385;28;20456;-69
2021/10/01 01:30:05;;;;;;;3.00;2.10;;;10.70;99.90;;;;;;5075334;28;20871;-70
2021/10/01 01:32:36;;;;;;;6.37;2.13;;;10.70;99.90;;;;;;5075259;28;20803;-70
2021/10/01 01:35:07;;;;;;;2.13;1.93;;;10.70;99.90;;;;;;5074983;28;20935;-71
2021/10/01 01:37:38;;;;;;;3.50;1.77;;;10.70;99.90;;;;;;5075109;28;20448;-70
2021/10/01 01:40:07;;;;;;;5.07;2.40;;;10.70;99.90;;;;;;5075373;28;20865;-69
2021/10/01 01:42:35;;;;;;;3.27;1.90;;;10.70;99.90;;;;;;5075298;28;20467;-71
2021/10/01 01:45:03;;;;;;;2.63;2.20;;;10.70;99.90;;;;;;5074920;28;20466;-70
2021/10/01 01:47:33;;;;;;;4.47;2.50;;;10.60;99.90;;;;;;5075109;28;20528;-71
2021/10/01 01:50:01;;;;;;;5.27;2.50;;;10.60;99.90;;;;;;5075158;28;20925;-70
2021/10/01 01:52:29;;;;;;;5.40;2.30;;;10.60;99.90;;;;;;5074094;28;20493;-70
2021/10/01 01:54:57;;;;;;;3.80;2.40;;;10.60;99.90;;;;;;5074957;28;20460;-69
2021/10/01 01:57:26;;;;;;;2.80;2.37;;;10.60;99.90;;;;;;5074580;28;20458;-69
2021/10/01 01:59:54;;;;;;;3.20;2.07;;;10.60;99.90;;;;;;5074629;28;20989;-70
2021/10/01 02:02:22;;;;;;;2.80;2.13;;;10.60;99.90;;;;;;5074494;28;20462;-71
2021/10/01 02:04:51;;;;;;;4.00;2.37;;;10.60;99.90;;;;;;5074856;28;20459;-68
2021/10/01 02:07:18;;;;;;;3.43;1.87;;;10.60;99.90;;;;;;5074671;28;20454;-69
2021/10/01 02:09:46;;;;;;;3.97;2.30;;;10.60;99.90;;;;;;5074745;28;20467;-71
2021/10/01 02:12:15;;;;;;;4.13;2.30;;;10.60;99.90;;;;;;5074571;28;20462;-69
2021/10/01 02:14:46;;;;;;;3.17;2.60;;;10.60;99.90;;;;;;5074445;28;20931;-69
2021/10/01 02:17:14;;;;;;;6.70;2.53;;;10.50;99.90;;;;;;5074779;28;20752;-69
2021/10/01 02:19:43;;;;;;;8.50;3.10;;;10.50;99.90;;;;;;5074965;28;20466;-69
2021/10/01 02:22:12;;;;;;;5.63;2.37;;;10.50;99.90;;;;;;5074388;28;20455;-69
2021/10/01 02:24:39;;;;;;;2.77;2.33;;;10.50;99.90;;;;;;5074235;28;20558;-69
2021/10/01 02:27:12;;;;;;;3.70;2.53;;;10.50;99.90;;;;;;5074705;28;20454;-69
2021/10/01 02:29:48;;;;;;;2.47;2.27;;;10.40;99.90;;;;;;5074516;28;20506;-69
2021/10/01 02:32:25;;;;;;;2.30;2.10;;;10.40;99.90;;;;;;5074553;28;20455;-70
2021/10/01 02:34:52;;;;;;;2.57;2.37;;;10.40;99.90;;;;;;5074568;28;20505;-70
2021/10/01 02:37:21;;;;;;;2.20;2.10;;;10.40;99.90;;;;;;5074206;28;20938;-69
2021/10/01 02:39:52;;;;;;;5.33;2.27;;;10.40;99.90;;;;;;5074348;28;20825;-69
2021/10/01 02:42:20;;;;;;;3.27;2.57;;;10.40;99.90;;;;;;5074803;28;20766;-70
2021/10/01 02:44:48;;;;;;;3.07;2.77;;;10.40;99.90;;;;;;5074688;28;20451;-69
2021/10/01 02:47:16;;;;;;;4.90;2.77;;;10.40;99.90;;;;;;5074953;28;20447;-70
2021/10/01 02:49:43;;;;;;;3.77;2.53;;;10.40;99.90;;;;;;5074546;28;20454;-70
2021/10/01 02:52:14;;;;;;;3.00;2.63;;;10.40;99.90;;;;;;5074417;28;20452;-70
2021/10/01 02:54:49;;;;;;;3.43;2.40;;;10.40;99.90;;;;;;5074195;28;20470;-70
2021/10/01 02:57:19;;;;;;;3.37;2.40;;;10.40;99.90;;;;;;5074437;28;20473;-69
2021/10/01 02:59:47;;;;;;;3.50;2.60;;;10.40;99.90;;;;;;5074466;28;20454;-69
2021/10/01 03:02:16;;;;;;;2.90;2.60;;;10.40;99.90;;;;;;5074754;28;20554;-69
2021/10/01 03:04:47;;;;;;;3.00;2.40;;;10.40;99.90;;;;;;5078702;28;20911;-69
2021/10/01 03:07:15;;;;;;;3.03;2.63;;;10.30;99.90;;;;;;5078114;28;20530;-69
2021/10/01 03:09:43;;;;;;;3.77;2.90;;;10.30;99.90;;;;;;5078135;28;20463;-69
2021/10/01 03:12:12;;;;;;;5.10;2.80;;;10.30;99.90;;;;;;5077678;28;20518;-69
2021/10/01 03:14:40;;;;;;;4.10;3.00;;;10.30;99.90;;;;;;5077900;28;20482;-69
2021/10/01 03:17:08;;;;;;;3.80;2.50;;;10.30;99.90;;;;;;5077925;28;20491;-69
2021/10/01 03:19:35;;;;;;;3.20;2.90;;;10.30;99.90;;;;;;5077920;28;20531;-69
2021/10/01 03:22:03;;;;;;;4.00;2.67;;;10.30;99.90;;;;;;5078090;28;20891;-69
2021/10/01 03:24:34;;;;;;;7.77;2.80;;;10.30;99.90;;;;;;5077576;28;20521;-69
2021/10/01 03:27:02;;;;;;;3.37;3.07;;;10.30;99.90;;;;;;5077801;28;20438;-69
2021/10/01 03:29:29;;;;;;;4.23;3.00;;;10.30;99.90;;;;;;5077790;28;20918;-70
2021/10/01 03:31:56;;;;;;;3.50;3.07;;;10.20;99.90;;;;;;5077668;28;20474;-70
2021/10/01 03:34:22;;;;;;;4.03;2.90;;;10.20;99.90;;;;;;5077685;28;20572;-70
2021/10/01 03:36:49;;;;;;;6.70;3.30;;;10.20;99.90;;;;;;5077745;28;20456;-70
2021/10/01 03:39:20;;;;;;;3.00;2.70;;;10.20;99.90;;;;;;5077495;28;20482;-70
2021/10/01 03:41:50;;;;;;;2.93;2.73;;;10.20;99.90;;;;;;5077596;28;20574;-70
2021/10/01 03:44:18;;;;;;;3.60;3.00;;;10.20;99.90;;;;;;5077478;28;20451;-70
2021/10/01 03:46:47;;;;;;;4.43;3.20;;;10.20;99.90;;;;;;5077667;28;20466;-70
2021/10/01 03:49:15;;;;;;;4.80;3.27;;;10.10;99.90;;;;;;5077245;28;20494;-70
2021/10/01 03:51:42;;;;;;;3.10;2.80;;;10.10;99.90;;;;;;5077685;28;20456;-70
2021/10/01 03:54:09;;;;;;;6.10;3.20;;;10.10;99.90;;;;;;5077565;28;20479;-71
2021/10/01 03:56:36;;;;;;;3.10;2.80;;;10.10;99.90;;;;;;5077416;28;20549;-70
2021/10/01 03:59:02;;;;;;;4.73;3.20;;;10.10;99.90;;;;;;5077225;28;20450;-70
2021/10/01 04:01:31;;;;;;;3.37;3.07;;;10.10;99.90;;;;;;5077357;28;20466;-70
2021/10/01 04:03:57;;;;;;;3.77;2.93;;;10.10;99.90;;;;;;5077417;28;20462;-70
2021/10/01 04:06:24;;;;;;;5.27;3.20;;;10.10;99.90;;;;;;5076960;28;20520;-70
2021/10/01 04:08:50;;;;;;;3.23;2.93;;;10.10;99.90;;;;;;5076966;28;20541;-71
2021/10/01 04:11:19;;;;;;;3.07;2.83;;;10.10;99.90;;;;;;5077347;28;20806;-70
2021/10/01 04:13:45;;;;;;;4.53;3.27;;;10.10;99.90;;;;;;5076698;28;20851;-70
2021/10/01 04:16:12;;;;;;;3.40;2.70;;;10.10;99.90;;;;;;5076832;28;20937;-71
2021/10/01 04:18:40;;;;;;;3.43;2.97;;;10.10;99.90;;;;;;5076911;28;20922;-70
2021/10/01 04:21:06;;;;;;;3.00;2.63;;;10.00;99.90;;;;;;5077064;28;20556;-70
2021/10/01 04:23:33;;;;;;;4.60;2.63;;;10.00;99.90;;;;;;5076951;28;20837;-70
2021/10/01 04:26:03;;;;;;;5.53;3.00;;;10.00;99.90;;;;;;5076573;28;21028;-71
2021/10/01 04:28:30;;;;;;;4.33;3.70;;;10.00;99.90;;;;;;5076582;28;20461;-70
2021/10/01 04:30:56;;;;;;;4.73;2.90;;;9.90;99.90;;;;;;5076904;28;20454;-70
2021/10/01 04:33:24;;;;;;;5.53;2.77;;;9.90;99.90;;;;;;5076737;28;20540;-70
2021/10/01 04:35:53;;;;;;;10.63;4.30;;;9.90;99.90;;;;;;5076511;28;20461;-70
2021/10/01 04:38:21;;;;;;;5.97;3.43;;;9.90;99.90;;;;;;5076522;28;20483;-70
2021/10/01 04:40:48;;;;;;;5.00;3.00;;;9.90;99.90;;;;;;5076503;28;20454;-69
2021/10/01 04:43:14;;;;;;;3.27;2.97;;;9.90;99.90;;;;;;5075965;28;20461;-70
2021/10/01 04:45:41;;;;;;;4.00;3.23;;;9.90;99.90;;;;;;5076302;28;20470;-69
2021/10/01 04:48:08;;;;;;;4.20;2.80;;;9.80;99.90;;;;;;5076281;28;20469;-69
2021/10/01 04:50:36;;;;;;;3.33;2.90;;;9.90;99.90;;;;;;5076281;28;20462;-70
2021/10/01 04:53:05;;;;;;;3.63;3.33;;;9.80;99.90;;;;;;5075887;28;20469;-70
2021/10/01 04:55:33;;;;;;;3.50;3.13;;;9.80;99.90;;;;;;5075943;28;20462;-70
2021/10/01 04:57:59;;;;;;;5.50;3.07;;;9.90;99.90;;;;;;5076300;28;20454;-70
2021/10/01 05:00:26;;;;;;;4.20;3.50;;;9.90;99.90;;;;;;5075983;28;20481;-70
2021/10/01 05:02:53;;;;;;;4.27;3.13;;;9.90;99.90;;;;;;5076163;28;20471;-70
2021/10/01 05:05:20;;;;;;;5.73;3.70;;;9.90;99.90;;;;;;5076108;28;20450;-70
2021/10/01 05:07:47;;;;;;;3.47;3.27;;;9.90;99.90;;;;;;5076027;28;20466;-70
2021/10/01 05:10:15;;;;;;;4.10;3.13;;;9.90;99.90;;;;;;5075822;28;20461;-71
2021/10/01 05:12:43;;;;;;;4.90;3.40;;;9.80;99.90;;;;;;5075911;28;20463;-70
2021/10/01 05:15:11;;;;;;;5.07;3.07;;;9.80;99.90;;;;;;5075540;28;20490;-70
2021/10/01 05:17:40;;;;;;;14.97;8.33;;;9.90;99.90;;;;;;5075670;28;20458;-70
2021/10/01 05:20:08;;;;;;;7.00;4.90;;;9.90;99.90;;;;;;5075672;28;20496;-69
2021/10/01 05:22:35;;;;;;;3.20;2.90;;;9.90;99.90;;;;;;5075532;28;20455;-70
2021/10/01 05:25:03;;;;;;;3.63;3.30;;;9.90;99.90;;;;;;5075196;28;20487;-70
2021/10/01 05:27:31;;;;;;;4.50;3.03;;;9.90;99.90;;;;;;5074931;28;20440;-69
2021/10/01 05:29:58;;;;;;;3.60;3.30;;;9.90;99.90;;;;;;5075491;28;20470;-70
2021/10/01 05:32:25;;;;;;;4.73;3.67;;;9.90;99.90;;;;;;5075953;28;20502;-69
2021/10/01 05:34:53;;;;;;;4.50;3.97;;;9.80;99.90;;;;;;5075362;28;20824;-69
2021/10/01 05:37:20;;;;;;;3.80;3.30;;;9.80;99.90;;;;;;5075227;28;20455;-69
2021/10/01 05:39:47;;;;;;;6.13;3.47;;;9.90;99.90;;;;;;5075128;28;20469;-69
2021/10/01 05:42:14;;;;;;;5.40;3.20;;;9.90;99.90;;;;;;5074874;28;20465;-69
2021/10/01 05:44:42;;;;;;;8.07;3.50;;;9.90;99.90;;;;;;5076152;28;20890;-70
2021/10/01 05:47:08;;;;;;;4.93;3.20;;;10.00;99.90;;;;;;5075295;28;20463;-69
2021/10/01 05:49:39;;;;;;;8.87;5.00;;;10.00;99.90;;;;;;5075385;28;20787;-69
2021/10/01 05:52:22;;;;;;;4.63;4.17;;;10.00;99.90;;;;;;5075321;28;20488;-69
2021/10/01 05:54:50;;;;;;;6.80;4.00;;;10.00;99.90;;;;;;5074722;28;20845;-70
2021/10/01 05:57:17;;;;;;;4.43;3.80;;;10.10;99.90;;;;;;5075208;28;20458;-70
2021/10/01 05:59:46;;;;;;;6.03;3.70;;;10.10;99.90;;;;;;5074878;28;20461;-69
2021/10/01 06:02:15;;;;;;;5.27;3.60;;;10.20;99.90;;;;;;5075485;28;20458;-69
2021/10/01 06:04:42;;;;;;;5.27;3.60;;;10.20;99.90;;;;;;5075128;28;20462;-69
2021/10/01 06:07:11;;;;;;;5.40;3.40;;;10.20;99.90;;;;;;5075376;28;20509;-71
2021/10/01 06:09:39;;;;;;;6.43;3.60;;;10.20;99.90;;;;;;5075196;28;20455;-71
2021/10/01 06:12:07;;;;;;;4.73;3.07;;;10.30;99.90;;;;;;5075108;28;20787;-70
2021/10/01 06:14:33;;;;;;;3.30;2.77;;;10.30;99.90;;;;;;5074884;28;20485;-70
2021/10/01 06:17:01;;;;;;;5.27;4.77;;;10.30;99.90;;;;;;5075301;28;20472;-70
2021/10/01 06:19:28;;;;;;;4.33;3.30;;;10.40;99.90;;;;;;5074977;28;20463;-70
2021/10/01 06:21:56;;;;;;;7.37;3.50;;;10.40;99.90;;;;;;5074590;28;20467;-70
2021/10/01 06:24:23;;;;;;;3.63;3.27;;;10.50;99.90;;;;;;5074893;28;20544;-71
2021/10/01 06:26:50;;;;;;;11.10;3.33;;;10.60;99.90;;;;;;5074588;28;20796;-70
2021/10/01 06:29:17;;;;;;;4.33;3.30;;;10.70;99.90;;;;;;5074556;28;20462;-72
2021/10/01 06:31:45;;;;;;;5.60;3.30;;;10.70;99.90;;;;;;5074731;28;20525;-71
2021/10/01 06:34:13;;;;;;;4.50;3.47;;;10.80;99.90;;;;;;5074683;28;20534;-70
2021/10/01 06:36:40;;;;;;;4.43;3.23;;;11.00;99.90;;;;;;5074394;28;20516;-70
2021/10/01 06:39:08;;;;;;;5.43;3.77;;;11.10;99.90;;;;;;5074495;28;20802;-69
2021/10/01 06:41:39;;;;;;;5.87;3.17;;;11.10;99.90;;;;;;5074429;28;20464;-68
2021/10/01 06:44:07;;;;;;;3.50;3.20;;;11.20;99.90;;;;;;5074502;28;20505;-71
2021/10/01 06:46:42;;;;;;;4.20;2.80;;;11.30;99.90;;;;;;5074323;28;20468;-70
2021/10/01 06:49:20;;;;;;;5.03;3.30;;;11.30;99.90;;;;;;5074145;28;20888;-70
2021/10/01 06:52:09;;;;;;;5.33;3.23;;;11.30;99.90;;;;;;5074123;28;20445;-70
2021/10/01 08:20:01;;;;;;;4.00;2.33;;;12.60;99.90;;;;;;5076798;28;20422;-69
2021/10/01 08:22:27;;;;;;;2.40;2.20;;;12.70;99.90;;;;;;5077350;28;20469;-70
2021/10/01 08:24:54;;;;;;;5.50;2.30;;;12.80;99.90;;;;;;5076597;28;20542;-70
2021/10/01 08:27:23;;;;;;;1.80;1.60;;;12.80;99.90;;;;;;5076936;28;20555;-69
2021/10/01 08:29:52;;;;;;;3.67;2.00;;;13.00;99.90;;;;;;5077059;28;20521;-70
2021/10/01 08:32:18;;;;;;;2.30;2.10;;;13.10;99.90;;;;;;5078609;28;20462;-69
2021/10/01 08:34:46;;;;;;;5.17;2.37;;;13.20;99.90;;;;;;5078970;28;20947;-71
2021/10/01 08:37:13;;;;;;;3.90;2.10;;;13.30;99.90;;;;;;5081409;28;20450;-70
2021/10/01 08:39:41;;;;;;;4.73;2.00;;;13.40;99.90;;;;;;5084265;28;20535;-70
2021/10/01 08:42:08;;;;;;;4.80;2.20;;;13.50;99.90;;;;;;5088016;28;20466;-70
2021/10/01 08:44:36;;;;;;;2.03;1.37;;;13.60;99.90;;;;;;5086813;28;20454;-70
2021/10/01 08:47:05;;;;;;;6.53;2.17;;;13.70;99.90;;;;;;5090607;28;20452;-70
2021/10/01 08:49:33;;;;;;;2.07;1.70;;;13.80;99.90;;;;;;5085629;28;20500;-70
2021/10/01 08:52:00;;;;;;;4.90;2.73;;;13.90;99.90;;;;;;5081780;28;20985;-70
2021/10/01 08:54:27;;;;;;;2.13;1.50;;;14.00;99.90;;;;;;5080503;28;20479;-70
2021/10/01 08:56:54;;;;;;;2.57;1.90;;;14.10;99.90;;;;;;5077661;28;20465;-70
2021/10/01 08:59:21;;;;;;;3.23;1.83;;;14.30;99.90;;;;;;5076876;28;20465;-70
2021/10/01 09:01:48;;;;;;;3.63;1.57;;;14.30;99.90;;;;;;5076042;28;20557;-70
2021/10/01 09:04:16;;;;;;;2.67;1.70;;;14.40;99.90;;;;;;5076167;28;20457;-70
2021/10/01 09:06:45;;;;;;;2.50;1.53;;;14.60;99.90;;;;;;5075447;28;20525;-70
2021/10/01 09:09:13;;;;;;;2.17;1.40;;;14.60;99.90;;;;;;5076137;28;20459;-70
2021/10/01 09:11:45;;;;;;;2.93;1.80;;;14.70;99.90;;;;;;5075451;28;20469;-70
2021/10/01 09:14:14;;;;;;;1.93;1.30;;;14.90;99.90;;;;;;5075515;28;20513;-70
2021/10/01 09:16:43;;;;;;;7.57;1.50;;;15.00;99.90;;;;;;5075830;28;20457;-70
2021/10/01 09:19:10;;;;;;;2.90;1.13;;;15.00;99.90;;;;;;5075382;28;20458;-70
2021/10/01 09:21:44;;;;;;;3.27;1.53;;;15.10;99.90;;;;;;5075094;28;20457;-70
2021/10/01 09:24:14;;;;;;;2.83;1.23;;;15.30;99.90;;;;;;5075408;28;20431;-70
2021/10/01 09:26:48;;;;;;;3.63;1.53;;;15.50;99.90;;;;;;5075128;28;20499;-70
2021/10/01 09:29:25;;;;;;;3.90;1.60;;;15.40;99.90;;;;;;5075180;28;20507;-69
2021/10/01 09:31:52;;;;;;;2.70;1.43;;;15.50;99.90;;;;;;5075150;28;20476;-70
2021/10/01 09:34:33;;;;;;;2.97;1.07;;;15.50;99.90;;;;;;5075059;28;20469;-70
2021/10/01 09:37:04;;;;;;;1.63;1.50;;;15.50;99.90;;;;;;5075424;28;20449;-70
2021/10/01 09:39:33;;;;;;;1.90;1.70;;;15.40;99.90;;;;;;5075121;28;20460;-70
2021/10/01 09:42:11;;;;;;;1.90;1.30;;;15.40;99.90;;;;;;5075488;28;20462;-69
2021/10/01 09:44:43;;;;;;;2.10;1.70;;;15.50;99.90;;;;;;5074759;28;20439;-69
2021/10/01 09:47:10;;;;;;;2.70;1.47;;;15.40;99.90;;;;;;5075264;28;20450;-69
2021/10/01 09:49:37;;;;;;;2.33;1.30;;;15.40;99.90;;;;;;5075219;28;20474;-69
2021/10/01 09:52:06;;;;;;;4.97;1.50;;;15.50;99.90;;;;;;5074972;28;20465;-69
2021/10/01 09:54:33;;;;;;;1.87;1.57;;;15.60;99.90;;;;;;5074875;28;20537;-69
2021/10/01 09:57:02;;;;;;;1.90;1.30;;;15.70;99.90;;;;;;5074912;28;20492;-69
2021/10/01 09:59:30;;;;;;;1.60;1.10;;;15.70;99.90;;;;;;5074797;28;20454;-69
2021/10/01 10:02:00;;;;;;;1.67;1.20;;;15.80;99.90;;;;;;5075150;28;20850;-69
2021/10/01 10:04:28;;;;;;;4.00;1.53;;;15.80;99.90;;;;;;5074827;28;20523;-69
2021/10/01 10:06:56;;;;;;;4.60;1.83;;;15.90;99.90;;;;;;5074467;28;20787;-69
2021/10/01 10:09:34;;;;;;;4.23;1.30;;;16.00;99.90;;;;;;5074556;28;20817;-69
2021/10/01 10:12:02;;;;;;;2.40;1.13;;;16.10;99.90;;;;;;5074160;28;20454;-69
2021/10/01 10:14:32;;;;;;;4.80;1.20;;;16.20;99.90;;;;;;5074422;28;20451;-69
2021/10/01 10:16:59;;;;;;;2.70;1.43;;;16.20;99.90;;;;;;5074370;28;20910;-69
2021/10/01 10:19:30;;;;;;;1.80;1.60;;;16.40;99.90;;;;;;5074370;28;20458;-69
2021/10/01 10:22:02;;;;;;;2.30;1.63;;;16.40;99.90;;;;;;5074862;28;20482;-69
2021/10/01 10:24:28;;;;;;;5.13;1.63;;;16.40;99.90;;;;;;5074083;28;20458;-70
2021/10/01 10:26:58;;;;;;;3.70;1.20;;;16.50;99.90;;;;;;5074356;28;20776;-68
2021/10/01 10:29:25;;;;;;;1.50;1.40;;;16.60;99.90;;;;;;5074421;28;20469;-68
2021/10/01 10:31:53;;;;;;;2.57;1.10;;;16.70;99.90;;;;;;5073137;28;20853;-70
2021/10/01 10:34:24;;;;;;;3.37;1.23;;;16.80;99.90;;;;;;5074213;28;20938;-70
2021/10/01 10:36:59;;;;;;;1.50;1.17;;;16.90;99.90;;;;;;5074871;28;20849;-70
2021/10/01 10:39:42;;;;;;;4.83;1.13;;;17.10;99.90;;;;;;5074314;28;20449;-68
2021/10/01 10:42:37;;;;;;;1.90;1.40;;;17.30;99.90;;;;;;5074737;28;20442;-69
2021/10/01 10:45:19;;;;;;;1.50;1.20;;;17.40;99.90;;;;;;5061121;28;20463;-68
2021/10/01 10:47:53;;;;;;;3.10;2.43;;;17.40;99.90;;;;;;5074267;28;20477;-70
2021/10/01 10:50:50;;;;;;;2.97;1.40;;;17.40;99.90;;;;;;5076339;28;20479;-71
2021/10/01 10:53:30;;;;;;;2.23;1.10;;;17.40;99.90;;;;;;5074526;28;20482;-69
2021/10/01 10:56:08;;;;;;;3.27;1.30;;;17.40;99.90;;;;;;5074052;28;20499;-69
2021/10/01 10:58:45;;;;;;;1.50;1.33;;;17.40;99.90;;;;;;5074156;28;20446;-69
2021/10/01 11:01:36;;;;;;;2.80;1.30;;;17.50;99.90;;;;;;5074486;28;20871;-69
2021/10/01 11:04:40;;;;;;;2.07;1.40;;;17.60;99.90;;;;;;5074101;28;20497;-69
2021/10/01 11:07:09;;;;;;;3.73;1.60;;;17.50;99.90;;;;;;5073793;28;20441;-69
2021/10/01 11:09:39;;;;;;;3.67;1.50;;;17.50;99.90;;;;;;5073635;28;20566;-69
2021/10/01 11:12:30;;;;;;;2.63;1.57;;;17.60;99.90;;;;;;5073882;28;20471;-69
2021/10/01 11:15:20;;;;;;;2.27;1.20;;;17.80;99.90;;;;;;5062238;28;20907;-70
2021/10/01 11:18:13;;;;;;;1.73;1.10;;;18.00;99.90;;;;;;5077666;28;20438;-72
2021/10/01 11:20:42;;;;;;;1.70;1.30;;;18.30;99.90;;;;;;5078281;28;20489;-70
2021/10/01 11:23:19;;;;;;;2.70;1.23;;;18.30;99.90;;;;;;5074320;28;20969;-68
2021/10/01 11:25:48;;;;;;;3.50;2.00;;;18.40;99.90;;;;;;5076835;28;20516;-71
2021/10/01 11:28:15;;;;;;;3.40;1.47;;;18.40;99.90;;;;;;5078214;28;20458;-69
2021/10/01 11:30:51;;;;;;;3.13;1.30;;;18.40;99.90;;;;;;5078426;28;20553;-70
2021/10/01 11:33:19;;;;;;;1.90;0.90;;;18.40;99.90;;;;;;5079045;28;20718;-71
2021/10/01 11:35:54;;;;;;;3.27;1.30;;;18.60;99.90;;;;;;5079082;28;20479;-69
2021/10/01 11:38:27;;;;;;;1.70;1.30;;;18.80;99.90;;;;;;5078415;28;20541;-70
2021/10/01 11:41:05;;;;;;;1.47;1.10;;;18.80;99.90;;;;;;5078596;28;20464;-70
2021/10/01 11:43:32;;;;;;;1.80;1.40;;;18.90;99.90;;;;;;5078726;28;20454;-70
2021/10/01 11:46:01;;;;;;;3.63;0.90;;;18.90;99.90;;;;;;5079580;28;20451;-70
2021/10/01 11:48:34;;;;;;;2.07;1.00;;;19.00;99.90;;;;;;5083724;28;20529;-71
2021/10/01 11:51:01;;;;;;;3.10;1.27;;;19.30;99.90;;;;;;5086274;28;20468;-70
2021/10/01 11:53:30;;;;;;;2.83;1.10;;;19.60;99.90;;;;;;5086928;28;20456;-69
2021/10/01 11:56:01;;;;;;;2.00;1.23;;;20.10;99.90;;;;;;5085704;28;20491;-70
2021/10/01 11:58:29;;;;;;;3.60;1.20;;;20.50;99.90;;;;;;5080504;28;20442;-69
2021/10/01 12:01:08;;;;;;;5.70;1.13;;;21.10;99.90;;;;;;5077891;28;20747;-69
2021/10/01 12:03:36;;;;;;;2.17;1.40;;;21.70;99.90;;;;;;5077389;28;20898;-69
2021/10/01 12:06:03;;;;;;;2.23;1.40;;;22.00;99.90;;;;;;5076758;28;20478;-69
2021/10/01 12:08:34;;;;;;;1.63;1.10;;;22.50;99.90;;;;;;5077056;28;20459;-69
2021/10/01 12:11:02;;;;;;;3.37;1.00;;;23.10;99.90;;;;;;5076961;28;20558;-70
2021/10/01 12:13:31;;;;;;;2.00;0.90;;;23.70;99.90;;;;;;5077115;28;20553;-70
2021/10/01 12:16:03;;;;;;;4.40;1.10;;;24.30;99.90;;;;;;5076668;28;20494;-71
2021/10/01 12:18:37;;;;;;;2.63;1.73;;;24.80;98.20;;;;;;5076591;28;20449;-69
2021/10/01 12:21:07;;;;;;;3.43;0.80;;;24.90;95.10;;;;;;5076653;28;20919;-69
2021/10/01 12:23:36;;;;;;;1.80;0.90;;;25.10;94.00;;;;;;5076160;28;20455;-70
2021/10/01 12:26:25;;;;;;;10.33;1.20;;;25.60;93.60;;;;;;5076468;28;20548;-69
2021/10/01 12:29:04;;;;;;;2.77;0.93;;;26.40;89.10;;;;;;5076932;28;20442;-70
2021/10/01 12:31:36;;;;;;;1.30;0.70;;;26.80;85.40;;;;;;5076594;28;20442;-70
2021/10/01 12:34:06;;;;;;;1.50;1.03;;;26.90;80.30;;;;;;5076504;28;20447;-70
2021/10/01 12:36:33;;;;;;;2.03;1.00;;;27.00;75.60;;;;;;5075717;28;20537;-70
2021/10/01 12:39:01;;;;;;;3.57;1.50;;;27.00;76.60;;;;;;5076333;28;20520;-70
2021/10/01 12:41:29;;;;;;;4.53;0.93;;;27.50;74.80;;;;;;5075937;28;20462;-70
2021/10/01 12:43:59;;;;;;;2.60;0.80;;;27.60;68.90;;;;;;5076766;28;20470;-70
2021/10/01 12:46:44;;;;;;;1.33;0.90;;;27.70;64.70;;;;;;5075954;28;20843;-70
2021/10/01 12:49:15;;;;;;;4.53;1.30;;;27.70;60.80;;;;;;5076284;28;20443;-70
2021/10/01 12:51:42;;;;;;;1.57;0.90;;;27.80;1.00;;;;;;5076252;28;20769;-70
2021/10/01 12:54:24;;;;;;;1.20;0.83;;;27.90;1.00;;;;;;5075836;28;20467;-70
2021/10/01 12:57:23;;;;;;;6.00;0.93;;;27.90;1.00;;;;;;5075858;28;20959;-70
2021/10/01 12:59:51;;;;;;;1.93;1.00;;;27.70;1.00;;;;;;5075380;28;20462;-70
2021/10/01 13:02:20;;;;;;;1.33;0.80;;;26.90;1.00;;;;;;5075725;28;20455;-70
2021/10/01 13:05:00;;;;;;;1.50;0.80;;;26.50;1.00;;;;;;5075696;28;20451;-70
2021/10/01 13:07:35;;;;;;;1.67;1.07;;;26.70;1.00;;;;;;5075731;28;20511;-70
2021/10/01 13:10:21;;;;;;;3.90;1.17;;;26.90;1.00;;;;;;5075478;28;20449;-70
2021/10/01 13:12:50;;;;;;;2.20;1.03;;;27.10;1.00;;;;;;5075542;28;20438;-70
2021/10/01 13:15:23;;;;;;;3.20;0.90;;;27.60;1.00;;;;;;5075414;28;20556;-70
2021/10/01 13:18:09;;;;;;;1.63;0.90;;;28.10;1.00;;;;;;5075413;28;20442;-70
2021/10/01 13:20:39;;;;;;;2.50;1.00;;;28.20;1.00;;;;;;5075239;28;20454;-70
2021/10/01 13:23:08;;;;;;;1.37;0.93;;;28.20;1.00;;;;;;5075832;28;20450;-70
2021/10/01 13:25:38;;;;;;;1.60;0.90;;;28.40;1.00;;;;;;5074933;28;20953;-70
2021/10/01 13:28:06;;;;;;;1.87;1.50;;;28.20;1.00;;;;;;5075448;28;20462;-70
2021/10/01 13:30:33;;;;;;;2.17;0.80;;;28.30;1.00;;;;;;5075531;28;20469;-70
2021/10/01 13:33:02;;;;;;;2.10;1.07;;;28.60;1.00;;;;;;5075362;28;20462;-70
2021/10/01 13:35:29;;;;;;;1.90;1.13;;;29.20;1.00;;;;;;5075283;28;20520;-70
2021/10/01 13:37:58;;;;;;;1.73;0.80;;;29.60;1.00;;;;;;5075072;28;20459;-70
2021/10/01 13:40:25;;;;;;;1.20;0.90;;;29.50;1.00;;;;;;5075147;28;20562;-70
2021/10/01 13:42:51;;;;;;;4.87;1.00;;;29.80;1.00;;;;;;5075323;28;20459;-70
2021/10/01 13:45:18;;;;;;;1.33;0.80;;;29.90;1.00;;;;;;5075039;28;20474;-70
2021/10/01 13:47:46;;;;;;;1.50;0.90;;;30.20;1.00;;;;;;5074159;28;20465;-71
2021/10/01 13:50:13;;;;;;;2.30;0.83;;;30.80;1.00;;;;;;5075075;28;20489;-70
2021/10/01 13:52:40;;;;;;;1.77;0.90;;;31.20;1.00;;;;;;5074920;28;20532;-70
2021/10/01 13:55:11;;;;;;;1.60;1.30;;;31.40;1.00;;;;;;5074841;28;20466;-70
2021/10/01 13:57:38;;;;;;;1.10;0.80;;;31.60;1.00;;;;;;5074580;28;20838;-70
2021/10/01 14:00:06;;;;;;;1.50;0.93;;;31.80;1.00;;;;;;5075226;28;20469;-69
2021/10/01 14:02:35;;;;;;;3.20;1.00;;;31.70;1.00;;;;;;5077274;28;20766;-70
2021/10/01 14:05:02;;;;;;;1.97;1.17;;;31.50;1.00;;;;;;5077687;28;20528;-70
2021/10/01 14:07:28;;;;;;;2.20;1.00;;;31.20;1.00;;;;;;5077370;28;20466;-69
2021/10/01 14:09:57;;;;;;;2.30;0.90;;;31.30;1.00;;;;;;5076451;28;20454;-69
2021/10/01 14:12:25;;;;;;;2.67;1.00;;;31.30;1.00;;;;;;5076659;28;20474;-69
2021/10/01 14:14:51;;;;;;;1.40;1.00;;;31.50;1.00;;;;;;5076140;28;20533;-70
2021/10/01 14:17:18;;;;;;;2.77;1.00;;;31.40;1.00;;;;;;5074884;28;20482;-70
2021/10/01 14:19:45;;;;;;;1.33;0.80;;;31.10;1.00;;;;;;5074941;28;20911;-70
2021/10/01 14:22:11;;;;;;;1.87;1.00;;;30.80;1.00;;;;;;5074909;28;20533;-70
2021/10/01 14:24:38;;;;;;;1.30;0.93;;;30.80;1.00;;;;;;5074405;28;20465;-71
2021/10/01 14:27:05;;;;;;;1.40;0.80;;;30.50;1.00;;;;;;5075169;28;20443;-71